Time;durP1;ratioP1;P1;durP2;ratioP2;P2;SDS_P1;SDS_P2;PMS_P1;PMS_P2;Temp;Humidity;BMP_temperature;BMP_pressure;BME280_temperature;BME280_humidity;BME280_pressure;Samples;Min_cycle;Max_cycle;Signal;HPM_P1;HPM_P2
2023/10/29 00:00:48;;;;;;;6.57;1.50;;;;;;;-146.27;92.05;82749.81;5037811;28;20030;-72
2023/10/29 00:03:14;;;;;;;2.05;1.35;;;;;;;-146.27;91.90;82769.91;5044721;28;20029;-72
2023/10/29 00:05:40;;;;;;;7.95;2.10;;;;;;;-146.27;91.34;82749.81;5034749;28;20216;-72
2023/10/29 00:08:05;;;;;;;6.38;1.98;;;;;;;-146.27;91.45;82761.84;5024856;28;20036;-74
2023/10/29 00:10:31;;;;;;;5.47;1.55;;;;;;;-146.27;91.98;82787.97;5022384;28;20021;-73
2023/10/29 00:12:56;;;;;;;5.90;1.98;;;;;;;-146.27;92.44;82822.13;5024016;28;20025;-73
2023/10/29 00:15:21;;;;;;;4.85;1.33;;;;;;;-146.27;91.71;82729.72;5030897;28;20033;-73
2023/10/29 00:17:47;;;;;;;3.22;1.60;;;;;;;-146.27;91.61;82719.66;5032456;28;20106;-73
2023/10/29 00:20:12;;;;;;;4.78;1.42;;;;;;;-146.27;91.74;82709.63;5042708;28;20115;-74
2023/10/29 00:22:38;;;;;;;2.20;1.13;;;;;;;-146.27;92.22;82761.84;5037374;28;20040;-74
2023/10/29 00:25:03;;;;;;;4.88;1.50;;;;;;;-146.27;91.57;82697.56;5023156;28;20032;-74
2023/10/29 00:27:29;;;;;;;4.68;1.75;;;;;;;-146.27;92.63;82794.00;5016980;28;20504;-73
2023/10/29 00:29:54;;;;;;;7.53;1.45;;;;;;;-146.27;91.74;82721.69;5015323;28;20424;-75
2023/10/29 00:32:19;;;;;;;4.78;1.27;;;;;;;-146.27;91.04;82697.56;5016363;28;20466;-75
2023/10/29 00:34:46;;;;;;;3.25;1.40;;;;;;;-146.27;91.08;82691.53;5012259;28;20029;-74
2023/10/29 00:37:12;;;;;;;4.43;1.73;;;;;;;-146.27;90.29;82659.41;5043709;28;20044;-75
2023/10/29 00:39:38;;;;;;;3.55;0.82;;;;;;;-146.27;90.26;82717.66;5035646;28;20026;-75
2023/10/29 00:42:04;;;;;;;5.10;1.30;;;;;;;-146.27;89.24;82613.19;5018340;28;20033;-74
2023/10/29 00:44:29;;;;;;;3.95;0.98;;;;;;;-146.27;89.10;82635.28;5017650;28;20036;-75
2023/10/29 00:46:54;;;;;;;2.70;1.08;;;;;;;-146.27;88.19;82637.31;5024123;28;20363;-74
2023/10/29 00:49:20;;;;;;;4.15;1.30;;;;;;;-146.27;88.05;82609.19;5026023;28;20033;-74
2023/10/29 00:51:46;;;;;;;3.28;0.93;;;;;;;-146.27;88.95;82657.41;5010400;28;20031;-75
2023/10/29 00:54:11;;;;;;;3.10;0.95;;;;;;;-146.27;88.88;82655.38;5010076;28;20137;-75
2023/10/29 00:56:37;;;;;;;2.55;1.13;;;;;;;-146.27;88.02;82573.00;5028317;28;20079;-75
2023/10/29 00:59:03;;;;;;;4.90;1.30;;;;;;;-146.27;88.04;82633.28;5027212;28;20028;-75
2023/10/29 01:01:29;;;;;;;5.30;1.05;;;;;;;-146.27;86.72;82591.09;5026039;28;20036;-75
2023/10/29 01:03:54;;;;;;;2.75;0.88;;;;;;;-146.27;87.29;82615.22;5032001;28;20464;-74
2023/10/29 01:06:20;;;;;;;1.63;1.00;;;;;;;-146.27;87.48;82583.06;5037398;28;20033;-75
2023/10/29 01:08:46;;;;;;;8.85;3.20;;;;;;;-146.27;87.34;82597.13;5024290;28;20025;-74
2023/10/29 01:11:11;;;;;;;4.35;0.95;;;;;;;-146.27;86.74;82558.97;5039178;28;20125;-75
2023/10/29 01:13:36;;;;;;;1.77;1.45;;;;;;;-146.27;87.32;82621.22;5040130;28;20509;-75
2023/10/29 01:16:04;;;;;;;3.95;1.15;;;;;;;-146.27;87.21;82585.06;5040647;28;20041;-74
2023/10/29 01:18:31;;;;;;;4.88;1.00;;;;;;;-146.27;87.19;82593.09;5022368;28;20114;-74
2023/10/29 01:20:56;;;;;;;3.38;1.08;;;;;;;-146.27;87.42;82599.13;5025299;28;20037;-75
2023/10/29 01:23:23;;;;;;;5.45;1.05;;;;;;;-146.27;88.21;82601.16;5026842;28;20045;-75
2023/10/29 01:25:48;;;;;;;2.03;0.80;;;;;;;-146.27;88.05;82689.53;5016301;28;20154;-75
2023/10/29 01:28:13;;;;;;;1.67;1.08;;;;;;;-146.27;88.39;82647.34;5030510;28;20076;-75
2023/10/29 01:30:39;;;;;;;2.67;0.77;;;;;;;-146.27;88.46;82633.28;5033690;28;20029;-74
2023/10/29 01:33:04;;;;;;;4.20;0.85;;;;;;;-146.27;88.05;82599.13;5019401;28;20037;-74
2023/10/29 01:35:29;;;;;;;1.00;0.77;;;;;;;-146.27;87.87;82621.22;5045352;28;20382;-74
2023/10/29 01:37:55;;;;;;;2.55;1.00;;;;;;;-146.27;88.02;82657.41;5042702;28;20024;-73
2023/10/29 01:40:20;;;;;;;7.32;1.02;;;;;;;-146.27;87.72;82669.44;5028676;28;20053;-73
2023/10/29 01:42:46;;;;;;;1.77;1.00;;;;;;;-146.27;87.75;82685.50;5033568;28;20029;-73
2023/10/29 01:45:14;;;;;;;5.07;1.05;;;;;;;-146.27;87.03;82615.22;5040066;28;20108;-74
2023/10/29 01:47:40;;;;;;;4.65;0.90;;;;;;;-146.27;87.16;82649.34;5034219;28;20103;-72
2023/10/29 01:50:06;;;;;;;0.88;0.70;;;;;;;-146.27;86.61;82617.22;5022780;28;20099;-73
2023/10/29 01:52:32;;;;;;;8.55;1.10;;;;;;;-146.27;86.80;82625.25;5034883;28;20440;-74
2023/10/29 01:54:57;;;;;;;2.90;1.35;;;;;;;-146.27;86.34;82621.22;5023357;28;20148;-73
2023/10/29 01:57:23;;;;;;;2.35;1.05;;;;;;;-146.27;86.26;82569.00;5029353;28;20516;-72
2023/10/29 01:59:48;;;;;;;0.93;0.70;;;;;;;-146.27;85.44;82619.22;5028745;28;20037;-74
2023/10/29 02:02:13;;;;;;;0.73;0.60;;;;;;;-146.27;85.97;82623.25;5014600;28;20021;-73
2023/10/29 02:04:39;;;;;;;1.75;0.60;;;;;;;-146.27;85.06;82552.94;5019947;28;20029;-73
2023/10/29 02:07:04;;;;;;;3.92;0.70;;;;;;;-146.27;84.17;82554.94;5025587;28;20407;-73
2023/10/29 02:09:29;;;;;;;0.95;0.65;;;;;;;-146.27;83.19;82643.31;5027519;28;20545;-73
2023/10/29 02:11:55;;;;;;;0.93;0.38;;;;;;;-146.27;82.06;82671.47;5021432;28;20105;-73
2023/10/29 02:14:20;;;;;;;0.55;0.38;;;;;;;-146.27;80.83;82705.59;5029245;28;20026;-74
2023/10/29 02:16:46;;;;;;;3.75;0.50;;;;;;;-146.27;80.54;82729.72;5020747;28;20149;-73
2023/10/29 02:19:12;;;;;;;0.95;0.40;;;;;;;-146.27;81.19;82711.63;5027910;28;20022;-73
2023/10/29 02:21:37;;;;;;;1.50;0.50;;;;;;;-146.27;81.18;82701.59;5029053;28;20021;-73
2023/10/29 02:24:03;;;;;;;3.58;0.52;;;;;;;-146.27;80.38;82757.84;5038082;28;20034;-73
2023/10/29 02:26:28;;;;;;;2.38;1.20;;;;;;;-146.27;80.08;82769.91;5039907;28;20041;-73
2023/10/29 02:28:54;;;;;;;1.75;0.38;;;;;;;-146.27;79.77;82820.13;5020560;28;20024;-72
2023/10/29 02:31:20;;;;;;;0.70;0.30;;;;;;;-146.27;80.18;82816.09;5026683;28;20091;-72
2023/10/29 02:33:46;;;;;;;0.45;0.25;;;;;;;-146.27;80.11;82856.28;5025859;28;20026;-72
2023/10/29 02:36:12;;;;;;;2.17;0.35;;;;;;;-146.27;79.91;82890.44;5024817;28;20030;-73
2023/10/29 02:38:38;;;;;;;1.77;0.70;;;;;;;-146.27;79.98;82966.78;5028621;28;20032;-73
2023/10/29 02:41:07;;;;;;;1.25;0.30;;;;;;;-146.27;79.22;82892.44;5023678;28;20037;-73
2023/10/29 02:43:33;;;;;;;2.58;0.52;;;;;;;-146.27;78.76;82794.00;5018256;28;20014;-72
2023/10/29 02:45:59;;;;;;;2.55;0.40;;;;;;;-146.27;79.04;82880.41;5020336;28;20025;-71
2023/10/29 02:48:25;;;;;;;2.72;0.30;;;;;;;-146.27;78.73;82818.13;5021790;28;20112;-71
2023/10/29 02:50:51;;;;;;;3.33;0.50;;;;;;;-146.27;79.18;82850.25;5030518;28;20028;-72
2023/10/29 02:53:17;;;;;;;1.77;0.30;;;;;;;-146.27;79.58;82789.97;5017457;28;20022;-72
2023/10/29 02:55:42;;;;;;;1.17;0.40;;;;;;;-146.27;80.34;82958.75;5021642;28;20080;-72
2023/10/29 02:58:07;;;;;;;2.97;0.45;;;;;;;-146.27;79.63;82922.59;5030014;28;20680;-72
2023/10/29 03:00:33;;;;;;;6.13;0.60;;;;;;;-146.27;80.53;82894.47;5026425;28;20470;-72
2023/10/29 03:02:58;;;;;;;0.45;0.20;;;;;;;-146.27;81.27;82926.59;5022849;28;20119;-73
2023/10/29 03:05:23;;;;;;;2.05;0.63;;;;;;;-146.27;81.79;82934.63;5026260;28;20100;-73
2023/10/29 03:07:49;;;;;;;1.13;0.43;;;;;;;-146.27;81.90;82954.72;5038952;28;20726;-73
2023/10/29 03:10:14;;;;;;;1.98;0.40;;;;;;;-146.27;82.99;82942.66;5036986;28;20040;-71
2023/10/29 03:12:40;;;;;;;2.13;0.38;;;;;;;-146.27;83.43;82936.66;5031907;28;20040;-71
2023/10/29 03:15:06;;;;;;;3.47;0.45;;;;;;;-146.27;82.96;82862.31;5040221;28;20076;-73
2023/10/29 03:17:31;;;;;;;0.43;0.30;;;;;;;-146.27;83.49;82854.28;5021468;28;20399;-71
2023/10/29 03:19:57;;;;;;;3.60;0.50;;;;;;;-146.27;83.39;82854.28;5030024;28;20250;-73
2023/10/29 03:22:22;;;;;;;0.80;0.43;;;;;;;-146.27;83.85;82810.06;5040649;28;20044;-74
2023/10/29 03:24:47;;;;;;;2.53;0.60;;;;;;;-146.27;84.26;82858.28;5036884;28;20132;-72
2023/10/29 03:27:13;;;;;;;4.63;0.70;;;;;;;-146.27;83.89;82789.97;5035786;28;20482;-71
2023/10/29 03:29:38;;;;;;;6.47;1.33;;;;;;;-146.27;83.04;82777.94;5040873;28;20036;-73
2023/10/29 03:32:04;;;;;;;3.33;0.60;;;;;;;-146.27;83.49;82773.91;5030871;28;20492;-74
2023/10/29 03:34:32;;;;;;;1.63;0.60;;;;;;;-146.27;83.62;82794.00;5021760;28;20020;-71
2023/10/29 03:36:57;;;;;;;1.05;0.40;;;;;;;-146.27;82.68;82707.63;5034722;28;20024;-72
2023/10/29 03:39:23;;;;;;;4.03;0.80;;;;;;;-146.27;83.04;82701.59;5041504;28;20053;-72
2023/10/29 03:41:48;;;;;;;6.43;0.60;;;;;;;-146.27;82.41;82725.69;5036331;28;20017;-72
2023/10/29 03:44:14;;;;;;;1.85;0.55;;;;;;;-146.27;82.42;82765.88;5039128;28;20116;-73
2023/10/29 03:46:39;;;;;;;2.75;0.75;;;;;;;-146.27;82.17;82687.53;5024694;28;20049;-72
2023/10/29 03:49:05;;;;;;;1.38;0.55;;;;;;;-146.27;81.87;82715.66;5030877;28;20033;-73
2023/10/29 03:51:30;;;;;;;2.38;0.50;;;;;;;-146.27;82.24;82781.94;5038347;28;20029;-71
2023/10/29 03:53:55;;;;;;;5.35;0.60;;;;;;;-146.27;82.30;82749.81;5036977;28;20033;-72
2023/10/29 03:56:21;;;;;;;3.88;0.88;;;;;;;-146.27;82.14;82765.88;5018930;28;20026;-72
2023/10/29 03:58:46;;;;;;;1.88;0.50;;;;;;;-146.27;81.05;82677.47;5038699;28;20055;-71
2023/10/29 04:01:13;;;;;;;3.78;0.70;;;;;;;-146.27;81.21;82723.69;5026567;28;20040;-72
2023/10/29 04:03:39;;;;;;;3.60;0.50;;;;;;;-146.27;80.75;82681.50;5023132;28;20032;-71
2023/10/29 04:06:08;;;;;;;1.27;0.50;;;;;;;-146.27;80.79;82667.44;5028319;28;20382;-73
2023/10/29 04:08:34;;;;;;;7.15;0.90;;;;;;;-146.27;81.71;82729.72;5027193;28;20547;-73
2023/10/29 04:11:00;;;;;;;5.05;0.88;;;;;;;-146.27;84.94;82727.72;5043574;28;20017;-72
2023/10/29 04:13:26;;;;;;;0.93;0.50;;;;;;;-146.27;84.74;82757.84;5039132;28;20070;-73
2023/10/29 04:15:51;;;;;;;3.53;0.57;;;;;;;-146.27;84.57;82856.28;5028586;28;20032;-73
2023/10/29 04:18:18;;;;;;;3.75;1.15;;;;;;;-146.27;84.34;82982.84;5041117;28;20029;-73
2023/10/29 04:20:44;;;;;;;1.55;0.20;;;;;;;-146.27;84.23;83097.38;5035705;28;20037;-73
2023/10/29 04:23:09;;;;;;;0.57;0.20;;;;;;;-146.27;84.56;83099.38;5032108;28;20094;-75
2023/10/29 04:25:34;;;;;;;1.75;0.40;;;;;;;-146.27;85.76;83175.72;5031727;28;20441;-75
2023/10/29 04:28:00;;;;;;;0.35;0.20;;;;;;;-146.27;86.84;83215.91;5011938;28;20473;-75
2023/10/29 04:30:25;;;;;;;0.22;0.22;;;;;;;-146.27;86.76;83187.78;5015404;28;20026;-76
2023/10/29 04:32:50;;;;;;;2.28;0.40;;;;;;;-146.27;86.18;83131.53;5023133;28;20083;-75
2023/10/29 04:35:16;;;;;;;1.65;0.38;;;;;;;-146.27;86.77;83149.63;5012299;28;20404;-75
2023/10/29 04:37:41;;;;;;;1.45;0.22;;;;;;;-146.27;88.40;83215.91;5010604;28;20409;-75
2023/10/29 04:40:07;;;;;;;4.70;0.52;;;;;;;-146.27;89.39;83175.72;5013468;28;20105;-76
2023/10/29 04:42:33;;;;;;;1.33;0.50;;;;;;;-146.27;89.43;83181.75;5029064;28;20033;-75
2023/10/29 04:44:58;;;;;;;3.00;0.50;;;;;;;-146.27;91.31;83191.81;5017794;28;20108;-75
2023/10/29 04:47:23;;;;;;;1.60;0.50;;;;;;;-146.27;92.10;83167.69;5023886;28;20048;-76
2023/10/29 04:49:49;;;;;;;2.92;0.98;;;;;;;-146.27;91.83;83153.63;5029146;28;20033;-75
2023/10/29 04:52:14;;;;;;;8.02;0.77;;;;;;;-146.27;91.53;83234.00;5023255;28;20027;-75
2023/10/29 04:54:39;;;;;;;3.72;1.50;;;;;;;-146.27;91.34;83147.59;5045509;28;20029;-76
2023/10/29 04:57:05;;;;;;;4.35;0.60;;;;;;;-146.27;91.06;83145.59;5048246;28;20017;-75
2023/10/29 04:59:30;;;;;;;2.60;0.70;;;;;;;-146.27;90.42;83119.47;5034075;28;20040;-78
2023/10/29 05:01:55;;;;;;;4.72;0.75;;;;;;;-146.27;89.89;83105.41;5027569;28;20025;-77
2023/10/29 05:04:21;;;;;;;5.63;0.70;;;;;;;-146.27;88.80;83091.34;5032693;28;20061;-77
2023/10/29 05:06:46;;;;;;;8.88;1.00;;;;;;;-146.27;88.55;83057.19;5018836;28;20026;-77
2023/10/29 05:09:11;;;;;;;4.10;0.57;;;;;;;-146.27;88.50;83083.31;5017035;28;20036;-78
2023/10/29 05:11:37;;;;;;;9.50;1.10;;;;;;;-146.27;87.51;83019.03;5017966;28;20033;-77
2023/10/29 05:14:02;;;;;;;7.80;1.10;;;;;;;-146.27;88.00;83071.25;5024518;28;20018;-77
2023/10/29 05:16:28;;;;;;;10.02;1.30;;;;;;;-146.27;87.21;83010.97;5028753;28;20504;-76
2023/10/29 05:18:53;;;;;;;9.73;1.23;;;;;;;-146.27;86.84;82980.84;5041249;28;20155;-77
2023/10/29 05:21:20;;;;;;;9.10;1.85;;;;;;;-146.27;87.48;83010.97;5032032;28;20489;-77
2023/10/29 05:23:46;;;;;;;6.88;1.45;;;;;;;-146.27;87.12;82978.84;5014224;28;20025;-77
2023/10/29 05:26:11;;;;;;;7.95;0.80;;;;;;;-146.27;87.41;83037.09;5021569;28;20029;-76
2023/10/29 05:28:37;;;;;;;4.88;0.93;;;;;;;-146.27;87.75;83021.03;5026831;28;20120;-76
2023/10/29 05:31:02;;;;;;;8.98;0.90;;;;;;;-146.27;88.11;83081.31;5030001;28;20025;-75
2023/10/29 05:33:28;;;;;;;5.82;0.70;;;;;;;-146.27;87.91;83000.94;5019858;28;20034;-75
2023/10/29 05:35:54;;;;;;;7.15;0.80;;;;;;;-146.27;87.30;83047.16;5032066;28;20068;-75
2023/10/29 05:38:19;;;;;;;4.18;0.75;;;;;;;-146.27;87.49;83051.16;5012603;28;20043;-74
2023/10/29 05:40:44;;;;;;;4.18;0.88;;;;;;;-146.27;87.22;83095.38;5018792;28;20061;-74
2023/10/29 05:43:10;;;;;;;4.55;0.88;;;;;;;-146.27;86.94;83087.31;5020522;28;20083;-74
2023/10/29 05:45:35;;;;;;;2.47;0.63;;;;;;;-146.27;86.03;83049.16;5023677;28;20053;-75
2023/10/29 05:48:01;;;;;;;4.70;0.55;;;;;;;-146.27;86.24;83002.94;5018822;28;20060;-74
2023/10/29 05:50:26;;;;;;;6.72;0.85;;;;;;;-146.27;84.62;82996.91;5024690;28;20025;-74
2023/10/29 05:52:52;;;;;;;5.40;1.00;;;;;;;-146.27;84.80;83015.00;5027834;28;20029;-74
2023/10/29 05:55:19;;;;;;;5.45;0.93;;;;;;;-146.27;85.10;82986.88;5025971;28;20453;-74
2023/10/29 05:57:45;;;;;;;10.13;1.10;;;;;;;-146.27;85.00;82958.75;5017724;28;20100;-75
2023/10/29 06:00:11;;;;;;;5.60;1.00;;;;;;;-146.27;84.58;82978.84;5018515;28;20445;-75
2023/10/29 06:02:38;;;;;;;6.13;1.08;;;;;;;-146.27;85.69;83087.31;5036069;28;20044;-75
2023/10/29 06:05:05;;;;;;;10.68;1.15;;;;;;;-146.27;85.17;83087.31;5033949;28;20034;-76
2023/10/29 06:07:30;;;;;;;4.05;1.10;;;;;;;-146.27;85.08;82994.91;5021267;28;20072;-75
2023/10/29 06:09:56;;;;;;;9.07;1.13;;;;;;;-146.27;84.14;83015.00;5016908;28;20500;-74
2023/10/29 06:12:22;;;;;;;8.65;1.38;;;;;;;-146.27;84.21;83043.13;5030306;28;20389;-74
2023/10/29 06:14:48;;;;;;;6.45;1.48;;;;;;;-146.27;84.56;83049.16;5026634;28;20108;-74
2023/10/29 06:17:13;;;;;;;6.53;1.60;;;;;;;-146.27;83.95;83031.06;5029988;28;20125;-74
2023/10/29 06:19:38;;;;;;;13.05;1.27;;;;;;;-146.27;83.24;82996.91;5023724;28;20037;-73
2023/10/29 06:22:08;;;;;;;6.30;0.70;;;;;;;-146.27;83.90;83023.03;5021618;28;20029;-74
2023/10/29 06:24:33;;;;;;;4.63;1.17;;;;;;;-146.27;83.99;83010.97;5034372;28;20086;-74
2023/10/29 06:26:59;;;;;;;4.60;1.00;;;;;;;-146.27;83.70;83083.31;5050193;28;20024;-74
2023/10/29 06:29:25;;;;;;;3.00;0.80;;;;;;;-146.27;84.09;83063.22;5030218;28;20397;-74
2023/10/29 06:31:50;;;;;;;7.35;1.65;;;;;;;-146.27;84.08;83051.16;5029958;28;20092;-73
2023/10/29 06:34:15;;;;;;;5.70;1.17;;;;;;;-146.27;82.76;82958.75;5029894;28;20021;-73
2023/10/29 06:36:41;;;;;;;10.70;1.23;;;;;;;-146.27;83.31;83043.13;5041725;28;20025;-74
2023/10/29 06:39:06;;;;;;;5.22;1.23;;;;;;;-146.27;82.90;83015.00;5030552;28;20070;-73
2023/10/29 06:41:32;;;;;;;2.15;0.60;;;;;;;-146.27;83.14;82992.91;5038546;28;20039;-73
2023/10/29 06:43:57;;;;;;;12.07;1.15;;;;;;;-146.27;82.64;82942.66;5034881;28;20037;-73
2023/10/29 06:46:22;;;;;;;6.78;1.25;;;;;;;-146.27;83.39;83071.25;5026146;28;20029;-74
2023/10/29 06:48:48;;;;;;;2.58;0.80;;;;;;;-146.27;83.28;83047.16;5025498;28;20429;-73
2023/10/29 06:51:18;;;;;;;7.30;1.20;;;;;;;-146.27;82.49;83000.94;5028591;28;20029;-73
2023/10/29 06:53:44;;;;;;;5.72;0.90;;;;;;;-146.27;83.22;83029.06;5031724;28;20565;-73
2023/10/29 06:56:10;;;;;;;5.38;0.70;;;;;;;-146.27;82.64;82978.84;5036754;28;20040;-73
2023/10/29 06:58:35;;;;;;;6.63;0.70;;;;;;;-146.27;82.87;83031.06;5031469;28;20048;-74
2023/10/29 07:01:05;;;;;;;6.05;1.15;;;;;;;-146.27;82.70;82996.91;5038764;28;20544;-73
2023/10/29 07:03:31;;;;;;;8.90;1.50;;;;;;;-146.27;82.77;83013.00;5031937;28;20436;-74
2023/10/29 07:06:08;;;;;;;6.28;0.68;;;;;;;-146.27;82.93;83029.06;5031736;28;20061;-73
2023/10/29 07:08:34;;;;;;;4.40;0.80;;;;;;;-146.27;82.72;82964.78;5034510;28;20124;-73
2023/10/29 07:11:01;;;;;;;3.08;0.80;;;;;;;-146.27;83.31;83039.09;5045490;28;20025;-74
2023/10/29 07:13:26;;;;;;;8.48;1.40;;;;;;;-146.27;83.35;83019.03;5022696;28;20021;-74
2023/10/29 07:15:53;;;;;;;3.67;1.10;;;;;;;-146.27;82.82;82998.94;5047540;28;20043;-73
2023/10/29 07:18:18;;;;;;;4.93;1.05;;;;;;;-146.27;83.39;82996.91;5043847;28;20103;-72
2023/10/29 07:20:43;;;;;;;4.70;0.95;;;;;;;-146.27;83.06;82998.94;5029884;28;21842;-73
2023/10/29 07:23:09;;;;;;;2.40;0.80;;;;;;;-146.27;82.98;82986.88;5026899;28;20503;-74
2023/10/29 07:25:35;;;;;;;4.90;0.85;;;;;;;-146.27;82.34;82952.72;5043470;28;20037;-73
2023/10/29 07:28:00;;;;;;;6.05;1.20;;;;;;;-146.27;82.05;82918.56;5035190;28;20049;-73
2023/10/29 07:30:26;;;;;;;4.45;1.00;;;;;;;-146.27;82.23;82948.69;5032158;28;20175;-75
2023/10/29 07:32:51;;;;;;;5.47;1.13;;;;;;;-146.27;81.73;82924.59;5036263;28;20041;-75
2023/10/29 07:35:16;;;;;;;8.82;0.90;;;;;;;-146.27;82.41;82974.81;5027714;28;20024;-74
2023/10/29 07:37:42;;;;;;;4.63;0.95;;;;;;;-146.27;81.98;82930.63;5034896;28;20450;-75
2023/10/29 07:40:08;;;;;;;4.63;0.82;;;;;;;-146.27;81.98;82950.72;5040774;28;20055;-75
2023/10/29 07:42:33;;;;;;;5.20;1.25;;;;;;;-146.27;81.90;82940.66;5031617;28;20397;-75
2023/10/29 07:44:58;;;;;;;5.45;0.88;;;;;;;-146.27;81.55;82922.59;5041517;28;20025;-75
2023/10/29 07:47:24;;;;;;;2.33;0.70;;;;;;;-146.27;81.51;82906.50;5042247;28;20077;-74
2023/10/29 07:49:49;;;;;;;5.20;0.95;;;;;;;-146.27;81.57;82964.78;5038019;28;20029;-75
2023/10/29 07:52:15;;;;;;;3.63;0.98;;;;;;;-146.27;80.96;82910.53;5037787;28;20483;-75
2023/10/29 07:54:41;;;;;;;2.25;0.88;;;;;;;-146.27;80.68;82926.59;5037727;28;20065;-77
2023/10/29 07:57:06;;;;;;;8.40;1.05;;;;;;;-146.27;80.59;82978.84;5034147;28;20032;-75
2023/10/29 07:59:34;;;;;;;4.03;0.70;;;;;;;-146.27;80.16;82926.59;5036401;28;20025;-76
2023/10/29 08:01:59;;;;;;;7.65;0.90;;;;;;;-146.27;80.56;82962.75;5034806;28;20037;-75
2023/10/29 08:04:26;;;;;;;7.38;1.20;;;;;;;-146.27;79.72;82950.72;5039810;28;20037;-75
2023/10/29 08:06:52;;;;;;;4.10;1.15;;;;;;;-146.27;79.33;82906.50;5034219;28;20032;-75
2023/10/29 08:09:17;;;;;;;7.25;0.85;;;;;;;-146.27;79.14;82982.84;5046746;28;20021;-75
2023/10/29 08:11:42;;;;;;;3.60;0.80;;;;;;;-146.27;78.78;82974.81;5025116;28;20104;-75
2023/10/29 08:14:08;;;;;;;4.60;0.90;;;;;;;-146.27;78.63;82976.81;5029725;28;20103;-76
2023/10/29 08:16:34;;;;;;;4.93;0.60;;;;;;;-146.27;78.37;83015.00;5033545;28;20498;-75
2023/10/29 08:18:59;;;;;;;3.80;0.52;;;;;;;-146.27;78.74;83004.94;5034007;28;20040;-76
2023/10/29 08:21:25;;;;;;;6.22;0.82;;;;;;;-146.27;77.95;82914.53;5031203;28;20036;-75
2023/10/29 08:23:51;;;;;;;5.38;0.68;;;;;;;-146.27;78.12;82922.59;5037234;28;20021;-74
2023/10/29 08:26:16;;;;;;;3.28;0.63;;;;;;;-146.27;78.04;82934.63;5033556;28;20029;-74
2023/10/29 08:28:41;;;;;;;2.88;1.02;;;;;;;-146.27;77.63;82882.41;5038536;28;20374;-76
2023/10/29 08:31:08;;;;;;;6.20;1.00;;;;;;;-146.27;76.53;82838.19;5029667;28;20037;-73
2023/10/29 08:33:33;;;;;;;2.88;0.60;;;;;;;-146.27;77.34;82874.38;5029968;28;20533;-74
2023/10/29 08:35:58;;;;;;;7.75;1.30;;;;;;;-146.27;77.03;82854.28;5026947;28;20112;-73
2023/10/29 08:38:24;;;;;;;5.53;1.00;;;;;;;-146.27;78.17;82906.50;5030534;28;20029;-74
2023/10/29 08:40:49;;;;;;;7.82;1.23;;;;;;;-146.27;78.57;82942.66;5028353;28;20025;-74
2023/10/29 08:43:15;;;;;;;4.22;0.88;;;;;;;-146.27;79.04;82930.63;5031839;28;20040;-74
2023/10/29 08:45:41;;;;;;;7.32;1.40;;;;;;;-146.27;78.54;82920.56;5027248;28;20738;-74
2023/10/29 08:48:07;;;;;;;9.60;1.08;;;;;;;-146.27;78.24;82812.09;5029590;28;20037;-75
2023/10/29 08:50:32;;;;;;;5.30;0.80;;;;;;;-146.27;77.72;82785.97;5029661;28;20509;-73
2023/10/29 08:52:58;;;;;;;8.02;1.05;;;;;;;-146.27;77.33;82890.44;5028789;28;20030;-73
2023/10/29 08:55:23;;;;;;;4.57;0.98;;;;;;;-146.27;76.91;82806.06;5027781;28;20095;-73
2023/10/29 08:57:49;;;;;;;7.13;0.90;;;;;;;-146.27;77.72;82926.59;5026295;28;20024;-73
2023/10/29 09:00:15;;;;;;;3.88;0.75;;;;;;;-146.27;77.33;82942.66;5036055;28;20021;-73
2023/10/29 09:02:40;;;;;;;3.53;1.08;;;;;;;-146.27;77.50;82934.63;5033674;28;20027;-72
2023/10/29 09:05:07;;;;;;;5.00;0.73;;;;;;;-146.27;76.79;83002.94;5028629;28;20033;-74
2023/10/29 09:07:33;;;;;;;5.60;1.25;;;;;;;-146.27;76.41;82888.44;5034167;28;20120;-74
2023/10/29 09:09:58;;;;;;;9.70;1.30;;;;;;;-146.27;75.83;82862.31;5031900;28;20018;-75
2023/10/29 09:12:25;;;;;;;4.88;1.25;;;;;;;-146.27;76.27;82930.63;5033603;28;20037;-75
2023/10/29 09:14:53;;;;;;;6.63;1.10;;;;;;;-146.27;75.99;82918.56;5037921;28;20382;-75
2023/10/29 09:17:19;;;;;;;7.93;1.23;;;;;;;-146.27;74.72;82834.19;5031825;28;20091;-74
2023/10/29 09:19:44;;;;;;;15.35;1.75;;;;;;;-146.27;74.29;82890.44;5036249;28;20085;-77
2023/10/29 09:22:10;;;;;;;9.23;1.35;;;;;;;-146.27;74.05;82860.31;5026455;28;20033;-76
2023/10/29 09:24:36;;;;;;;14.00;1.42;;;;;;;-146.27;73.70;82878.38;5031736;28;20428;-76
2023/10/29 09:27:02;;;;;;;7.28;1.00;;;;;;;-146.27;73.13;82800.03;5039970;28;20017;-76
2023/10/29 09:29:31;;;;;;;3.25;0.73;;;;;;;-146.27;73.11;82767.88;5039731;28;20049;-76
2023/10/29 09:31:56;;;;;;;11.40;1.02;;;;;;;-146.27;72.66;82771.91;5030886;28;20079;-77
2023/10/29 09:34:22;;;;;;;4.97;1.02;;;;;;;-146.27;73.48;82844.22;5026844;28;20033;-74
2023/10/29 09:36:47;;;;;;;9.27;1.63;;;;;;;-146.27;73.71;82810.06;5027750;28;20032;-74
2023/10/29 09:39:13;;;;;;;5.47;1.10;;;;;;;-146.27;73.37;82820.13;5023613;28;20121;-74
2023/10/29 09:41:46;;;;;;;15.20;2.10;;;;;;;-146.27;73.42;82785.97;5020593;28;20053;-72
2023/10/29 09:44:18;;;;;;;7.63;1.85;;;;;;;-146.27;73.91;82796.00;5025294;28;20056;-74
2023/10/29 09:46:45;;;;;;;6.05;1.17;;;;;;;-146.27;74.35;82806.06;5004174;28;20536;-73
2023/10/29 09:49:18;;;;;;;8.68;1.20;;;;;;;-146.27;74.24;82814.09;5023952;28;20110;-74
2023/10/29 09:51:44;;;;;;;6.55;1.30;;;;;;;-146.27;74.54;82765.88;5029048;28;20754;-74
2023/10/29 09:54:12;;;;;;;11.93;1.98;;;;;;;-146.27;74.33;82733.72;5033656;28;20407;-73
2023/10/29 09:56:39;;;;;;;12.38;1.70;;;;;;;-146.27;74.99;82765.88;5030828;28;20025;-73
2023/10/29 09:59:07;;;;;;;10.05;1.55;;;;;;;-146.27;74.60;82777.94;5029061;28;20021;-74
2023/10/29 10:01:35;;;;;;;7.70;1.48;;;;;;;-146.27;73.96;82806.06;5028090;28;20029;-74
2023/10/29 10:04:00;;;;;;;8.20;1.25;;;;;;;-146.27;74.37;82717.66;5035286;28;20120;-73
2023/10/29 10:06:27;;;;;;;8.00;0.98;;;;;;;-146.27;73.89;82687.53;5035831;28;20171;-73
2023/10/29 10:08:57;;;;;;;6.88;0.98;;;;;;;-146.27;74.27;82878.38;5043459;28;20025;-73
2023/10/29 10:11:24;;;;;;;12.38;1.52;;;;;;;-146.27;73.51;82689.53;5035745;28;20081;-73
2023/10/29 10:13:50;;;;;;;10.10;1.00;;;;;;;-146.27;71.99;82558.97;5029277;28;20025;-73
2023/10/29 10:16:16;;;;;;;6.28;1.15;;;;;;;-146.27;70.67;82504.72;5030461;28;20045;-74
2023/10/29 10:18:52;;;;;;;20.17;1.67;;;;;;;-146.27;69.90;82480.59;5033936;28;20029;-74
2023/10/29 10:21:20;;;;;;;11.50;1.45;;;;;;;-146.27;70.12;82536.84;5035141;28;20473;-75
2023/10/29 10:23:47;;;;;;;13.63;1.90;;;;;;;-146.27;69.86;82605.16;5032854;28;20620;-74
2023/10/29 10:26:18;;;;;;;10.38;1.50;;;;;;;-146.27;69.82;82532.84;5024492;28;20056;-75
2023/10/29 10:28:59;;;;;;;11.80;1.90;;;;;;;-146.27;69.71;82528.81;5044698;28;20093;-74
2023/10/29 10:31:28;;;;;;;9.82;1.80;;;;;;;-146.27;69.50;82396.25;5037181;28;20095;-74
2023/10/29 10:34:10;;;;;;;11.30;1.40;;;;;;;-146.27;69.36;82466.56;5023501;28;20021;-73
2023/10/29 10:36:35;;;;;;;11.52;1.33;;;;;;;-146.27;69.95;82460.53;5044834;28;20034;-73
2023/10/29 10:39:01;;;;;;;11.32;2.03;;;;;;;-146.27;69.85;82464.53;5031317;28;20110;-75
2023/10/29 10:41:47;;;;;;;10.30;1.52;;;;;;;-146.27;70.10;82589.09;5034420;28;20044;-75
2023/10/29 10:44:13;;;;;;;14.82;2.00;;;;;;;-146.27;69.38;82484.63;5024373;28;20041;-75
2023/10/29 10:46:47;;;;;;;8.13;2.05;;;;;;;-146.27;68.31;82382.19;5042230;28;20116;-74
2023/10/29 10:49:13;;;;;;;;;;;;;;;-146.27;67.71;82474.59;5026525;28;20104;-75
2023/10/29 10:51:40;;;;;;;9.15;1.77;;;;;;;-146.27;67.82;82492.66;5033651;28;20461;-75
2023/10/29 10:54:06;;;;;;;11.70;1.67;;;;;;;-146.27;69.62;82548.91;5027703;28;20021;-75
2023/10/29 10:56:36;;;;;;;11.27;1.98;;;;;;;-146.27;70.01;82589.09;5035545;28;20408;-75
2023/10/29 10:59:09;;;;;;;10.10;1.52;;;;;;;-146.27;70.71;82625.25;5024817;28;20029;-75
2023/10/29 11:01:37;;;;;;;11.23;1.75;;;;;;;-146.27;70.54;82601.16;5036206;28;20052;-73
2023/10/29 11:04:04;;;;;;;10.80;2.15;;;;;;;-146.27;71.63;82691.53;5038125;28;20064;-76
2023/10/29 11:06:32;;;;;;;12.60;1.75;;;;;;;-146.27;71.34;82605.16;5034480;28;20573;-76
2023/10/29 11:09:02;;;;;;;11.23;1.80;;;;;;;-146.27;70.45;82603.16;5036441;28;20053;-75
2023/10/29 11:11:38;;;;;;;14.23;2.92;;;;;;;-146.27;70.31;82589.09;5036174;28;20029;-75